Polaris — JD2797 — position and weather

sailwx.info

Track history (hours):
 
Tides and Currents Weather Stations Pressure Air Temp Water Temp Dewpoint Dewpoint Depression Visibility Wind Speed Wind Dir Waves Ship Positions

Polaris

Last reported at 2016-Jul-27 20:20 UTC. Time now 2016-Jul-27 23:01 UTC.
Position N 35°27' E 139°40'.

Length 30 m; draft 2.6 m.

Type: Pilot. MMSI: 431000764.

Date/timePositionNaut miles runAvg speedWind from/ knotsBaromVisibWave heightAir tempDewpointWater temp
2016-Jul-27 20:20N 35°27' E 139°40'6 8.2
2016-Jul-27 19:33N 35°20' E 139°41'5 5.1
2016-Jul-27 18:34N 35°17' E 139°45'8 7.7
2016-Jul-27 17:33N 35°23' E 139°40'4 3.6
2016-Jul-27 16:34N 35°27' E 139°40'0 0.0
2016-Jul-27 15:33N 35°27' E 139°40'0 0.0
2016-Jul-27 14:33N 35°27' E 139°40'0 0.0
2016-Jul-27 13:33N 35°27' E 139°40'0 0.0
2016-Jul-27 12:33N 35°27' E 139°40'0 0.0
2016-Jul-27 11:33N 35°27' E 139°40'0 0.0
2016-Jul-27 10:33N 35°27' E 139°40'0 0.0
2016-Jul-27 09:33N 35°27' E 139°40'0 0.0
2016-Jul-27 08:33N 35°27' E 139°40'6 6.3
2016-Jul-27 07:33N 35°21' E 139°42'7 6.7
2016-Jul-27 06:30N 35°15' E 139°46'5 5.8
2016-Jul-27 05:33N 35°19' E 139°43'5 4.8
2016-Jul-27 04:33N 35°24' E 139°42'3 3.1
2016-Jul-27 03:33N 35°27' E 139°40'0 0.0
2016-Jul-27 02:33N 35°27' E 139°40'0 0.0
2016-Jul-27 01:33N 35°27' E 139°40'0 0.0
2016-Jul-27 00:33N 35°27' E 139°40'0 0.0
2016-Jul-26 23:33N 35°27' E 139°40'0 0.0
2016-Jul-25 02:20N 35°27' E 139°40'0 0.3
2016-Jul-25 01:33N 35°27' E 139°40'1312.5
2016-Jul-25 00:33N 35°31' E 139°54'10 9.9
2016-Jul-24 23:34N 35°36' E 140°05'0 0.3
2016-Jul-24 22:33N 35°36' E 140°05'0 0.1
2016-Jul-24 21:33N 35°36' E 140°05'0 0.1
2016-Jul-24 20:33N 35°36' E 140°05'0 0.1
2016-Jul-24 19:33N 35°36' E 140°05'0 0.0
2016-Jul-24 18:33N 35°36' E 140°05'0 0.0
2016-Jul-24 17:34N 35°36' E 140°05'0 0.1
2016-Jul-24 16:34N 35°36' E 140°05'0 0.0
2016-Jul-24 15:33N 35°36' E 140°05'0 0.1
2016-Jul-24 14:34N 35°36' E 140°05'0 0.1
2016-Jul-24 13:34N 35°36' E 140°05'0 0.2
2016-Jul-24 12:34N 35°36' E 140°05'0 0.2
2016-Jul-24 11:34N 35°36' E 140°05'0 0.1
2016-Jul-24 10:33N 35°36' E 140°05'0 0.1
2016-Jul-24 09:34N 35°36' E 140°05'0 0.1
2016-Jul-24 08:33N 35°36' E 140°05'0 0.2
2016-Jul-24 07:34N 35°36' E 140°05'0 0.1
2016-Jul-24 06:34N 35°36' E 140°05'0 0.0
2016-Jul-24 05:33N 35°36' E 140°05'0 0.0
2016-Jul-24 04:34N 35°36' E 140°05'0 0.0
2016-Jul-24 03:33N 35°36' E 140°05'0 0.1
2016-Jul-24 02:34N 35°36' E 140°05'0 0.1
2016-Jul-24 01:33N 35°36' E 140°05'0 0.1
2016-Jul-24 00:33N 35°36' E 140°05'3 3.2
2016-Jul-23 23:33N 35°34' E 140°01'1211.8
2016-Jul-23 22:33N 35°27' E 139°50'10 9.7
2016-Jul-23 21:33N 35°18' E 139°44'9 8.3
2016-Jul-23 20:32N 35°10' E 139°47'1111.2
2016-Jul-23 19:33N 35°20' E 139°42'7 6.8
2016-Jul-23 18:34N 35°27' E 139°40'0 0.0
2016-Jul-23 17:33N 35°27' E 139°40'0 0.0
2016-Jul-23 16:33N 35°27' E 139°40'0 0.0
2016-Jul-23 15:33N 35°27' E 139°40'0 0.0
2016-Jul-23 14:33N 35°27' E 139°40'0 0.0
2016-Jul-23 13:33N 35°27' E 139°40'0 0.0
2016-Jul-23 12:33N 35°27' E 139°40'0 0.0
2016-Jul-23 11:33N 35°27' E 139°40'0 0.0
2016-Jul-23 10:34N 35°27' E 139°40'0 0.0
2016-Jul-23 09:34N 35°27' E 139°40'0 0.1
2016-Jul-23 08:34N 35°27' E 139°40'1212.0
2016-Jul-23 07:34N 35°16' E 139°46'5 4.6
2016-Jul-23 06:29N 35°11' E 139°46'17 0.8
2016-Jul-22 08:34N 35°27' E 139°40'10 9.5
2016-Jul-22 07:33N 35°18' E 139°45'6 3.1
2016-Jul-22 05:34N 35°24' E 139°41'3 3.2
2016-Jul-22 04:33N 35°27' E 139°40'0 0.0
2016-Jul-22 03:33N 35°27' E 139°40'0 0.0
2016-Jul-22 02:33N 35°27' E 139°40'0 0.0
2016-Jul-22 01:33N 35°27' E 139°40'0 0.0
2016-Jul-22 00:33N 35°27' E 139°40'0 0.0
2016-Jul-21 23:33N 35°27' E 139°40'0 0.0
2016-Jul-21 22:33N 35°27' E 139°40'1 0.7
2016-Jul-21 21:34N 35°27' E 139°40'1313.3
2016-Jul-21 20:33N 35°15' E 139°45'8 8.2
2016-Jul-21 19:34N 35°22' E 139°42'4 4.1
2016-Jul-21 18:33N 35°26' E 139°42'2 2.0
2016-Jul-21 17:33N 35°27' E 139°40'  
2016-Jul-19 07:17N 35°27' E 139°40'0 0.0
2016-Jul-19 04:33N 35°27' E 139°40'0 0.0
2016-Jul-19 03:33N 35°27' E 139°40'0 0.0
2016-Jul-19 02:33N 35°27' E 139°40'0 0.0
2016-Jul-19 01:33N 35°27' E 139°40'0 0.0
2016-Jul-19 00:34N 35°27' E 139°40'0 0.0
2016-Jul-18 23:33N 35°27' E 139°40'0 0.0
2016-Jul-18 22:33N 35°27' E 139°40'6 5.6
2016-Jul-18 21:30N 35°24' E 139°46'1111.7
2016-Jul-18 20:33N 35°13' E 139°47'4 3.9
2016-Jul-18 19:29N 35°16' E 139°44'1111.9
2016-Jul-18 18:34N 35°27' E 139°40'0 0.3
2016-Jul-18 17:33N 35°27' E 139°40'0 0.0
2016-Jul-18 16:34N 35°27' E 139°40'0 0.0
2016-Jul-18 15:33N 35°27' E 139°40'0 0.0
2016-Jul-18 14:33N 35°27' E 139°40'0 0.0
2016-Jul-18 13:33N 35°27' E 139°40'0 0.0
2016-Jul-18 12:33N 35°27' E 139°40'0 0.0
2016-Jul-18 11:33N 35°27' E 139°40'0 0.0
2016-Jul-18 10:33N 35°27' E 139°40'0 0.0
2016-Jul-18 09:33N 35°27' E 139°40'0 0.0
2016-Jul-18 08:33N 35°27' E 139°40'0 0.0
2016-Jul-18 07:34N 35°27' E 139°40'0 0.0
2016-Jul-18 06:33N 35°27' E 139°40'0 0.0
2016-Jul-18 05:33N 35°27' E 139°40'0 0.0
2016-Jul-18 04:33N 35°27' E 139°40'0 0.0
2016-Jul-18 03:33N 35°27' E 139°40'0 0.0
2016-Jul-18 02:33N 35°27' E 139°40'0 0.0
2016-Jul-18 01:33N 35°27' E 139°40'0 0.0
2016-Jul-18 00:33N 35°27' E 139°40'3 2.8
2016-Jul-17 23:34N 35°29' E 139°42'1 1.5
2016-Jul-17 22:33N 35°27' E 139°43'  
Track history (hours):
 
Tides and Currents Weather Stations Pressure Air Temp Water Temp Dewpoint Dewpoint Depression Visibility Wind Speed Wind Dir Waves Ship Positions

Polaris

Last reported at 2016-Jul-27 20:20 UTC. Time now 2016-Jul-27 23:01 UTC.
Position N 35°27' E 139°40'.

Length 30 m; draft 2.6 m.

Type: Pilot. MMSI: 431000764.

Date/timePositionNaut miles runAvg speedWind from/ knotsBaromVisibWave heightAir tempDewpointWater temp
2016-Jul-27 20:20N 35°27' E 139°40'6 8.2
2016-Jul-27 19:33N 35°20' E 139°41'5 5.1
2016-Jul-27 18:34N 35°17' E 139°45'8 7.7
2016-Jul-27 17:33N 35°23' E 139°40'4 3.6
2016-Jul-27 16:34N 35°27' E 139°40'0 0.0
2016-Jul-27 15:33N 35°27' E 139°40'0 0.0
2016-Jul-27 14:33N 35°27' E 139°40'0 0.0
2016-Jul-27 13:33N 35°27' E 139°40'0 0.0
2016-Jul-27 12:33N 35°27' E 139°40'0 0.0
2016-Jul-27 11:33N 35°27' E 139°40'0 0.0
2016-Jul-27 10:33N 35°27' E 139°40'0 0.0
2016-Jul-27 09:33N 35°27' E 139°40'0 0.0
2016-Jul-27 08:33N 35°27' E 139°40'6 6.3
2016-Jul-27 07:33N 35°21' E 139°42'7 6.7
2016-Jul-27 06:30N 35°15' E 139°46'5 5.8
2016-Jul-27 05:33N 35°19' E 139°43'5 4.8
2016-Jul-27 04:33N 35°24' E 139°42'3 3.1
2016-Jul-27 03:33N 35°27' E 139°40'0 0.0
2016-Jul-27 02:33N 35°27' E 139°40'0 0.0
2016-Jul-27 01:33N 35°27' E 139°40'0 0.0
2016-Jul-27 00:33N 35°27' E 139°40'0 0.0
2016-Jul-26 23:33N 35°27' E 139°40'0 0.0
2016-Jul-25 02:20N 35°27' E 139°40'0 0.3
2016-Jul-25 01:33N 35°27' E 139°40'1312.5
2016-Jul-25 00:33N 35°31' E 139°54'10 9.9
2016-Jul-24 23:34N 35°36' E 140°05'0 0.3
2016-Jul-24 22:33N 35°36' E 140°05'0 0.1
2016-Jul-24 21:33N 35°36' E 140°05'0 0.1
2016-Jul-24 20:33N 35°36' E 140°05'0 0.1
2016-Jul-24 19:33N 35°36' E 140°05'0 0.0
2016-Jul-24 18:33N 35°36' E 140°05'0 0.0
2016-Jul-24 17:34N 35°36' E 140°05'0 0.1
2016-Jul-24 16:34N 35°36' E 140°05'0 0.0
2016-Jul-24 15:33N 35°36' E 140°05'0 0.1
2016-Jul-24 14:34N 35°36' E 140°05'0 0.1
2016-Jul-24 13:34N 35°36' E 140°05'0 0.2
2016-Jul-24 12:34N 35°36' E 140°05'0 0.2
2016-Jul-24 11:34N 35°36' E 140°05'0 0.1
2016-Jul-24 10:33N 35°36' E 140°05'0 0.1
2016-Jul-24 09:34N 35°36' E 140°05'0 0.1
2016-Jul-24 08:33N 35°36' E 140°05'0 0.2
2016-Jul-24 07:34N 35°36' E 140°05'0 0.1
2016-Jul-24 06:34N 35°36' E 140°05'0 0.0
2016-Jul-24 05:33N 35°36' E 140°05'0 0.0
2016-Jul-24 04:34N 35°36' E 140°05'0 0.0
2016-Jul-24 03:33N 35°36' E 140°05'0 0.1
2016-Jul-24 02:34N 35°36' E 140°05'0 0.1
2016-Jul-24 01:33N 35°36' E 140°05'0 0.1
2016-Jul-24 00:33N 35°36' E 140°05'3 3.2
2016-Jul-23 23:33N 35°34' E 140°01'1211.8
2016-Jul-23 22:33N 35°27' E 139°50'10 9.7
2016-Jul-23 21:33N 35°18' E 139°44'9 8.3
2016-Jul-23 20:32N 35°10' E 139°47'1111.2
2016-Jul-23 19:33N 35°20' E 139°42'7 6.8
2016-Jul-23 18:34N 35°27' E 139°40'0 0.0
2016-Jul-23 17:33N 35°27' E 139°40'0 0.0
2016-Jul-23 16:33N 35°27' E 139°40'0 0.0
2016-Jul-23 15:33N 35°27' E 139°40'0 0.0
2016-Jul-23 14:33N 35°27' E 139°40'0 0.0
2016-Jul-23 13:33N 35°27' E 139°40'0 0.0
2016-Jul-23 12:33N 35°27' E 139°40'0 0.0
2016-Jul-23 11:33N 35°27' E 139°40'0 0.0
2016-Jul-23 10:34N 35°27' E 139°40'0 0.0
2016-Jul-23 09:34N 35°27' E 139°40'0 0.1
2016-Jul-23 08:34N 35°27' E 139°40'1212.0
2016-Jul-23 07:34N 35°16' E 139°46'5 4.6
2016-Jul-23 06:29N 35°11' E 139°46'17 0.8
2016-Jul-22 08:34N 35°27' E 139°40'10 9.5
2016-Jul-22 07:33N 35°18' E 139°45'6 3.1
2016-Jul-22 05:34N 35°24' E 139°41'3 3.2
2016-Jul-22 04:33N 35°27' E 139°40'0 0.0
2016-Jul-22 03:33N 35°27' E 139°40'0 0.0
2016-Jul-22 02:33N 35°27' E 139°40'0 0.0
2016-Jul-22 01:33N 35°27' E 139°40'0 0.0
2016-Jul-22 00:33N 35°27' E 139°40'0 0.0
2016-Jul-21 23:33N 35°27' E 139°40'0 0.0
2016-Jul-21 22:33N 35°27' E 139°40'1 0.7
2016-Jul-21 21:34N 35°27' E 139°40'1313.3
2016-Jul-21 20:33N 35°15' E 139°45'8 8.2
2016-Jul-21 19:34N 35°22' E 139°42'4 4.1
2016-Jul-21 18:33N 35°26' E 139°42'2 2.0
2016-Jul-21 17:33N 35°27' E 139°40'  
2016-Jul-19 07:17N 35°27' E 139°40'0 0.0
2016-Jul-19 04:33N 35°27' E 139°40'0 0.0
2016-Jul-19 03:33N 35°27' E 139°40'0 0.0
2016-Jul-19 02:33N 35°27' E 139°40'0 0.0
2016-Jul-19 01:33N 35°27' E 139°40'0 0.0
2016-Jul-19 00:34N 35°27' E 139°40'0 0.0
2016-Jul-18 23:33N 35°27' E 139°40'0 0.0
2016-Jul-18 22:33N 35°27' E 139°40'6 5.6
2016-Jul-18 21:30N 35°24' E 139°46'1111.7
2016-Jul-18 20:33N 35°13' E 139°47'4 3.9
2016-Jul-18 19:29N 35°16' E 139°44'1111.9
2016-Jul-18 18:34N 35°27' E 139°40'0 0.3
2016-Jul-18 17:33N 35°27' E 139°40'0 0.0
2016-Jul-18 16:34N 35°27' E 139°40'0 0.0
2016-Jul-18 15:33N 35°27' E 139°40'0 0.0
2016-Jul-18 14:33N 35°27' E 139°40'0 0.0
2016-Jul-18 13:33N 35°27' E 139°40'0 0.0
2016-Jul-18 12:33N 35°27' E 139°40'0 0.0
2016-Jul-18 11:33N 35°27' E 139°40'0 0.0
2016-Jul-18 10:33N 35°27' E 139°40'0 0.0
2016-Jul-18 09:33N 35°27' E 139°40'0 0.0
2016-Jul-18 08:33N 35°27' E 139°40'0 0.0
2016-Jul-18 07:34N 35°27' E 139°40'0 0.0
2016-Jul-18 06:33N 35°27' E 139°40'0 0.0
2016-Jul-18 05:33N 35°27' E 139°40'0 0.0
2016-Jul-18 04:33N 35°27' E 139°40'0 0.0
2016-Jul-18 03:33N 35°27' E 139°40'0 0.0
2016-Jul-18 02:33N 35°27' E 139°40'0 0.0
2016-Jul-18 01:33N 35°27' E 139°40'0 0.0
2016-Jul-18 00:33N 35°27' E 139°40'3 2.8
2016-Jul-17 23:34N 35°29' E 139°42'1 1.5
2016-Jul-17 22:33N 35°27' E 139°43'  

Dump ship's entire track history